Time;durP1;ratioP1;P1;durP2;ratioP2;P2;SDS_P1;SDS_P2;PMS_P1;PMS_P2;Temp;Humidity;BMP_temperature;BMP_pressure;BME280_temperature;BME280_humidity;BME280_pressure;Samples;Min_cycle;Max_cycle;Signal;HPM_P1;HPM_P2
2023/01/03 00:00:29;;;;;;;;;;;;;;;19.45;64.42;99950.22;2073085;28;20274;-74
2023/01/03 00:01:32;;;;;;;;;;;;;;;19.42;64.44;99938.78;2079642;28;19958;-74
2023/01/03 00:02:33;;;;;;;;;;;;;;;19.41;64.78;99949.72;2072589;28;21194;-74
2023/01/03 00:03:34;;;;;;;;;;;;;;;19.38;64.72;99944.69;2073679;28;19924;-74
2023/01/03 00:04:35;;;;;;;;;;;;;;;19.39;64.59;99949.06;2071832;28;19925;-74
2023/01/03 00:05:36;;;;;;;;;;;;;;;19.37;64.63;99943.03;2073826;28;20002;-76
2023/01/03 00:06:38;;;;;;;;;;;;;;;19.39;64.71;99939.13;2074189;28;19955;-75
2023/01/03 00:07:39;;;;;;;;;;;;;;;19.39;64.66;99946.38;2065137;28;20954;-75
2023/01/03 00:08:40;;;;;;;;;;;;;;;19.40;64.58;99946.19;2068957;28;19928;-74
2023/01/03 00:09:41;;;;;;;;;;;;;;;19.37;64.73;99938.47;2071064;28;20407;-75
2023/01/03 00:10:42;;;;;;;;;;;;;;;19.36;64.72;99952.94;2074592;28;21224;-74
2023/01/03 00:13:04;;;;;;;;;;;;;;;19.37;64.83;99945.72;2073110;28;19920;-74
2023/01/03 00:14:05;;;;;;;;;;;;;;;19.36;64.93;99939.50;2072323;28;21223;-76
2023/01/03 00:15:07;;;;;;;;;;;;;;;19.37;64.67;99941.16;2070469;28;20048;-76
2023/01/03 00:16:13;;;;;;;;;;;;;;;19.37;64.57;99943.84;2077447;28;20011;-74
2023/01/03 00:17:18;;;;;;;;;;;;;;;19.35;64.59;99942.34;2077755;28;19960;-76
2023/01/03 00:18:18;;;;;;;;;;;;;;;19.34;64.74;99938.81;2073257;28;20366;-75
2023/01/03 00:19:20;;;;;;;;;;;;;;;19.33;64.59;99939.81;2070402;28;19935;-75
2023/01/03 00:20:21;;;;;;;;;;;;;;;19.33;64.86;99931.75;2074328;28;19929;-74
2023/01/03 00:21:23;;;;;;;;;;;;;;;19.33;64.95;99947.06;2073569;28;20808;-74
2023/01/03 00:22:24;;;;;;;;;;;;;;;19.30;64.51;99945.56;2072581;28;20804;-76
2023/01/03 00:23:25;;;;;;;;;;;;;;;19.32;64.75;99943.53;2074316;28;19925;-75
2023/01/03 00:24:27;;;;;;;;;;;;;;;19.31;64.84;99943.72;2065183;28;20027;-75
2023/01/03 00:25:27;;;;;;;;;;;;;;;19.29;64.99;99940.38;2071864;28;20021;-75
2023/01/03 00:26:29;;;;;;;;;;;;;;;19.28;64.86;99947.59;2072517;28;20648;-76
2023/01/03 00:27:30;;;;;;;;;;;;;;;19.29;64.96;99943.91;2074806;28;19964;-76
2023/01/03 00:28:31;;;;;;;;;;;;;;;19.28;64.92;99944.91;2076220;28;19920;-74
2023/01/03 00:29:32;;;;;;;;;;;;;;;19.27;65.09;99948.59;2070363;28;19924;-75
2023/01/03 00:30:34;;;;;;;;;;;;;;;19.26;65.03;99941.56;2073776;28;19937;-75
2023/01/03 00:31:35;;;;;;;;;;;;;;;19.25;64.85;99947.97;2072173;28;20353;-75
2023/01/03 00:32:38;;;;;;;;;;;;;;;19.26;64.89;99946.94;2080625;28;20305;-76
2023/01/03 00:33:39;;;;;;;;;;;;;;;19.26;64.81;99948.78;2072362;28;19924;-74
2023/01/03 00:34:43;;;;;;;;;;;;;;;19.24;64.98;99946.28;2072906;28;19929;-76
2023/01/03 00:35:43;;;;;;;;;;;;;;;19.24;64.82;99950.81;2073770;28;19964;-75
2023/01/03 00:36:45;;;;;;;;;;;;;;;19.23;64.96;99941.91;2072638;28;19936;-74
2023/01/03 00:37:45;;;;;;;;;;;;;;;19.23;64.96;99947.28;2072313;28;19936;-74
2023/01/03 00:38:47;;;;;;;;;;;;;;;19.21;64.72;99949.31;2071333;28;20721;-76
2023/01/03 00:39:48;;;;;;;;;;;;;;;19.23;64.80;99946.47;2072793;28;19997;-75
2023/01/03 00:40:49;;;;;;;;;;;;;;;19.22;64.89;99940.22;2073836;28;19937;-75
2023/01/03 00:41:50;;;;;;;;;;;;;;;19.21;64.94;99941.25;2065974;28;19936;-74
2023/01/03 00:44:10;;;;;;;;;;;;;;;19.19;64.86;99937.88;2069679;28;19925;-74
2023/01/03 00:45:10;;;;;;;;;;;;;;;19.19;64.95;99937.88;2069583;28;19928;-75
2023/01/03 00:46:13;;;;;;;;;;;;;;;19.19;64.70;99935.19;2071239;28;19979;-75
2023/01/03 00:47:14;;;;;;;;;;;;;;;19.19;64.95;99936.06;2065978;28;19972;-76
2023/01/03 00:48:16;;;;;;;;;;;;;;;19.19;64.89;99935.19;2077851;28;19924;-75
2023/01/03 00:49:18;;;;;;;;;;;;;;;19.19;64.93;99940.56;2071202;28;19925;-74
2023/01/03 00:50:18;;;;;;;;;;;;;;;19.17;64.87;99932.69;2072903;28;19924;-75
2023/01/03 00:51:21;;;;;;;;;;;;;;;19.16;65.08;99933.69;2072521;28;21457;-75
2023/01/03 00:52:22;;;;;;;;;;;;;;;19.16;64.89;99940.94;2073129;28;20859;-76
2023/01/03 00:53:23;;;;;;;;;;;;;;;19.16;65.04;99940.94;2075892;28;19928;-74
2023/01/03 00:54:24;;;;;;;;;;;;;;;19.17;64.92;99938.06;2069892;28;19946;-75
2023/01/03 00:55:26;;;;;;;;;;;;;;;19.17;64.92;99931.88;2073792;28;20657;-76
2023/01/03 00:56:27;;;;;;;;;;;;;;;19.17;64.94;99932.69;2073591;28;19929;-75
2023/01/03 00:57:29;;;;;;;;;;;;;;;19.16;64.60;99933.69;2072728;28;19925;-74
2023/01/03 00:58:29;;;;;;;;;;;;;;;19.15;64.93;99934.72;2071699;28;19925;-74
2023/01/03 00:59:31;;;;;;;;;;;;;;;19.15;64.85;99936.56;2071588;28;19939;-76
2023/01/03 01:00:32;;;;;;;;;;;;;;;19.15;64.88;99936.56;2065576;28;19963;-75
2023/01/03 01:01:34;;;;;;;;;;;;;;;19.13;64.71;99934.03;2072262;28;19931;-75
2023/01/03 01:02:35;;;;;;;;;;;;;;;19.13;64.70;99939.44;2070589;28;21999;-75
2023/01/03 01:03:38;;;;;;;;;;;;;;;19.12;65.05;99940.44;2081575;28;19921;-75
2023/01/03 01:04:39;;;;;;;;;;;;;;;19.11;64.89;99943.31;2083853;28;19974;-75
2023/01/03 01:05:41;;;;;;;;;;;;;;;19.11;64.74;99938.78;2082403;28;20154;-75
2023/01/03 01:06:42;;;;;;;;;;;;;;;19.11;64.89;99938.78;2082979;28;19921;-75
2023/01/03 01:07:43;;;;;;;;;;;;;;;19.11;64.53;99944.16;2081641;28;19971;-74
2023/01/03 01:08:44;;;;;;;;;;;;;;;19.10;64.92;99937.09;2082436;28;19982;-75
2023/01/03 01:09:45;;;;;;;;;;;;;;;19.09;64.96;99939.97;2082707;28;19924;-74
2023/01/03 01:11:00;;;;;;;;;;;;;;;19.08;64.73;99935.59;2083031;28;20551;-74
2023/01/03 01:12:02;;;;;;;;;;;;;;;19.09;64.99;99942.66;2082836;28;19929;-74
2023/01/03 01:13:03;;;;;;;;;;;;;;;19.10;64.70;99947.00;2082748;28;20374;-74
2023/01/03 01:14:18;;;;;;;;;;;;;;;19.08;64.93;99949.88;2082709;28;19920;-75
2023/01/03 01:15:20;;;;;;;;;;;;;;;19.08;64.83;99940.97;2082603;28;19964;-74
2023/01/03 01:16:21;;;;;;;;;;;;;;;19.06;65.03;99943.00;2082713;28;19939;-74
2023/01/03 01:17:23;;;;;;;;;;;;;;;19.06;64.90;99951.09;2084288;28;19920;-75
2023/01/03 01:18:23;;;;;;;;;;;;;;;19.06;64.79;99951.09;2075631;28;19936;-74
2023/01/03 01:19:28;;;;;;;;;;;;;;;19.05;64.79;99950.22;2082752;28;19947;-75
2023/01/03 01:20:28;;;;;;;;;;;;;;;19.04;64.79;99945.03;2084341;28;19924;-74
2023/01/03 01:21:31;;;;;;;;;;;;;;;19.04;64.74;99950.41;2082946;28;19935;-74
2023/01/03 01:22:32;;;;;;;;;;;;;;;19.06;64.57;99943.00;2083612;28;19920;-74
2023/01/03 01:23:34;;;;;;;;;;;;;;;19.04;64.93;99947.72;2076119;28;20448;-75
2023/01/03 01:24:35;;;;;;;;;;;;;;;19.05;64.99;99944.84;2081928;28;19925;-74
2023/01/03 01:25:37;;;;;;;;;;;;;;;19.03;65.07;99957.63;2082834;28;20279;-75
2023/01/03 01:26:37;;;;;;;;;;;;;;;19.03;64.94;99946.03;2083680;28;20400;-74
2023/01/03 01:27:39;;;;;;;;;;;;;;;19.02;64.80;99952.41;2078037;28;19924;-76
2023/01/03 01:28:39;;;;;;;;;;;;;;;19.01;64.82;99948.06;2081610;28;19924;-75
2023/01/03 01:29:41;;;;;;;;;;;;;;;19.01;65.14;99953.44;2081953;28;19928;-75
2023/01/03 01:30:41;;;;;;;;;;;;;;;18.98;64.88;99950.09;2083040;28;19936;-74
2023/01/03 01:31:43;;;;;;;;;;;;;;;18.99;64.96;99961.69;2083029;28;20523;-75
2023/01/03 01:32:43;;;;;;;;;;;;;;;19.00;64.82;99951.75;2083629;28;19920;-75
2023/01/03 01:33:45;;;;;;;;;;;;;;;18.98;65.13;99952.78;2083191;28;20377;-74
2023/01/03 01:34:47;;;;;;;;;;;;;;;18.97;64.92;99953.78;2082145;28;19921;-75
2023/01/03 01:35:48;;;;;;;;;;;;;;;18.96;65.04;99952.09;2082648;28;19929;-75
2023/01/03 01:36:49;;;;;;;;;;;;;;;18.96;64.79;99952.09;2082924;28;20498;-73
2023/01/03 01:37:50;;;;;;;;;;;;;;;18.98;64.81;99952.78;2082134;28;19937;-75
2023/01/03 01:38:52;;;;;;;;;;;;;;;18.95;65.01;99950.44;2074899;28;19929;-75
2023/01/03 01:39:54;;;;;;;;;;;;;;;18.94;65.12;99954.16;2082126;28;19928;-74
2023/01/03 01:40:54;;;;;;;;;;;;;;;18.96;64.78;99953.97;2081866;28;19935;-74
2023/01/03 01:44:47;;;;;;;;;;;;;;;18.93;65.17;99952.44;2081942;28;19924;-74
2023/01/03 01:45:47;;;;;;;;;;;;;;;18.92;65.00;99950.78;2083221;28;20017;-74
2023/01/03 01:46:49;;;;;;;;;;;;;;;18.90;65.26;99950.13;2083123;28;19933;-75
2023/01/03 01:47:52;;;;;;;;;;;;;;;18.91;65.24;99950.94;2075397;28;20513;-76
2023/01/03 01:48:56;;;;;;;;;;;;;;;18.90;65.05;99950.13;2069937;28;19925;-75
2023/01/03 01:50:00;;;;;;;;;;;;;;;18.91;65.02;99950.94;2077245;28;20413;-75
2023/01/03 01:51:02;;;;;;;;;;;;;;;18.90;65.15;99952.81;2069877;28;23307;-73
2023/01/03 01:52:03;;;;;;;;;;;;;;;18.91;64.90;99948.25;2073447;28;19936;-75
2023/01/03 01:53:07;;;;;;;;;;;;;;;18.88;64.80;99946.75;2073047;28;19924;-74
2023/01/03 01:54:08;;;;;;;;;;;;;;;18.89;64.97;99947.63;2069191;28;19929;-75
2023/01/03 01:55:12;;;;;;;;;;;;;;;18.89;65.05;99947.63;2054771;28;19921;-76
2023/01/03 01:56:14;;;;;;;;;;;;;;;18.88;65.06;99953.97;2069854;28;19928;-75
2023/01/03 01:57:17;;;;;;;;;;;;;;;18.86;64.95;99951.50;2074005;28;19928;-74
2023/01/03 01:58:19;;;;;;;;;;;;;;;18.86;65.14;99954.19;2071009;28;20695;-76
2023/01/03 01:59:20;;;;;;;;;;;;;;;18.84;65.04;99948.13;2070096;28;21172;-76
2023/01/03 02:00:21;;;;;;;;;;;;;;;18.84;65.04;99950.81;2072990;28;19948;-74
2023/01/03 02:01:24;;;;;;;;;;;;;;;18.85;65.19;99951.66;2068906;28;19929;-75
2023/01/03 02:02:26;;;;;;;;;;;;;;;18.84;65.22;99948.13;2070794;28;19959;-75
2023/01/03 02:03:27;;;;;;;;;;;;;;;18.85;65.17;99954.34;2070121;28;19925;-74
2023/01/03 02:04:30;;;;;;;;;;;;;;;18.84;64.99;99950.81;2070450;28;19921;-75
2023/01/03 02:05:35;;;;;;;;;;;;;;;18.85;64.93;99944.41;2075029;28;19920;-75
2023/01/03 02:06:36;;;;;;;;;;;;;;;18.83;65.13;99951.81;2073975;28;19925;-75
2023/01/03 02:07:38;;;;;;;;;;;;;;;18.81;65.47;99948.47;2076255;28;20409;-76
2023/01/03 02:08:39;;;;;;;;;;;;;;;18.83;65.15;99943.75;2071379;28;23593;-75
2023/01/03 02:09:41;;;;;;;;;;;;;;;18.81;65.03;99943.09;2069801;28;19947;-76
2023/01/03 02:11:02;;;;;;;;;;;;;;;18.81;65.22;99947.63;2070292;28;22317;-75
2023/01/03 02:13:31;;;;;;;;;;;;;;;18.80;65.00;99946.78;2068851;28;19929;-75
2023/01/03 02:14:38;;;;;;;;;;;;;;;18.80;65.02;99944.09;2071907;28;21585;-74
2023/01/03 02:15:57;;;;;;;;;;;;;;;18.80;65.25;99946.78;2068897;28;19924;-74
2023/01/03 02:17:04;;;;;;;;;;;;;;;18.79;65.20;99945.13;2071457;28;19982;-75
2023/01/03 02:18:12;;;;;;;;;;;;;;;18.80;64.93;99945.94;2072568;28;19921;-74
2023/01/03 02:19:30;;;;;;;;;;;;;;;18.78;65.14;99943.44;2068250;28;20313;-74
2023/01/03 02:20:38;;;;;;;;;;;;;;;18.76;65.13;99945.47;2075486;28;19935;-75
2023/01/03 02:22:01;;;;;;;;;;;;;;;18.76;65.18;99942.78;2074223;28;20026;-75
2023/01/03 02:23:12;;;;;;;;;;;;;;;18.73;65.31;99938.53;2070151;28;19925;-75
2023/01/03 02:24:27;;;;;;;;;;;;;;;18.72;65.41;99939.56;2071200;28;19924;-75
2023/01/03 02:25:43;;;;;;;;;;;;;;;18.72;65.36;99931.50;2073938;28;20374;-74
2023/01/03 02:26:49;;;;;;;;;;;;;;;18.74;65.29;99936.72;2052966;28;19922;-74
2023/01/03 02:28:07;;;;;;;;;;;;;;;18.72;65.01;99927.97;2070620;28;19999;-74
2023/01/03 02:29:26;;;;;;;;;;;;;;;18.73;65.40;99930.47;2072134;28;19928;-75
2023/01/03 02:30:39;;;;;;;;;;;;;;;18.71;65.42;99926.28;2064951;28;19931;-76
2023/01/03 02:31:45;;;;;;;;;;;;;;;18.70;65.06;99927.31;2070180;28;19928;-75
2023/01/03 02:32:50;;;;;;;;;;;;;;;18.70;65.17;99927.31;2070838;28;20031;-74
2023/01/03 02:33:56;;;;;;;;;;;;;;;18.70;65.13;99928.16;2071114;28;19936;-74
2023/01/03 02:35:02;;;;;;;;;;;;;;;18.70;65.13;99930.00;2067586;28;19970;-76
2023/01/03 02:36:05;;;;;;;;;;;;;;;18.69;65.18;99926.47;2072964;28;20382;-74
2023/01/03 02:37:12;;;;;;;;;;;;;;;18.70;65.52;99924.63;2072577;28;20401;-75
2023/01/03 02:38:20;;;;;;;;;;;;;;;18.69;65.42;99925.63;2073469;28;19933;-74
2023/01/03 02:39:24;;;;;;;;;;;;;;;18.68;65.16;99921.25;2071151;28;19928;-74
2023/01/03 02:40:28;;;;;;;;;;;;;;;18.67;65.39;99922.28;2069058;28;19924;-75
2023/01/03 02:41:34;;;;;;;;;;;;;;;18.66;65.40;99923.28;2070216;28;19927;-74
2023/01/03 02:43:00;;;;;;;;;;;;;;;18.65;65.57;99919.75;2071499;28;20397;-75
2023/01/03 02:44:06;;;;;;;;;;;;;;;18.64;65.57;99920.78;2070959;28;19932;-76
2023/01/03 02:45:08;;;;;;;;;;;;;;;18.65;65.45;99917.06;2068795;28;19929;-75
2023/01/03 02:46:14;;;;;;;;;;;;;;;18.65;65.21;99916.25;2073600;28;19960;-74
2023/01/03 02:47:15;;;;;;;;;;;;;;;18.63;65.30;99915.56;2072511;28;20317;-73
2023/01/03 02:48:19;;;;;;;;;;;;;;;18.64;65.23;99914.56;2071974;28;19924;-75
2023/01/03 02:49:20;;;;;;;;;;;;;;;18.65;65.17;99921.63;2070405;28;20152;-75
2023/01/03 02:50:24;;;;;;;;;;;;;;;18.62;65.51;99920.09;2072559;28;19925;-74
2023/01/03 02:51:28;;;;;;;;;;;;;;;18.64;65.42;99915.41;2069853;28;20047;-74
2023/01/03 02:52:32;;;;;;;;;;;;;;;18.65;65.39;99916.25;2067676;28;19924;-74
2023/01/03 02:53:35;;;;;;;;;;;;;;;18.61;65.43;99910.38;2072535;28;19921;-75
2023/01/03 02:54:41;;;;;;;;;;;;;;;18.60;65.30;99913.22;2070678;28;19936;-75
2023/01/03 02:55:42;;;;;;;;;;;;;;;18.60;65.27;99914.06;2072435;28;19977;-74
2023/01/03 02:56:47;;;;;;;;;;;;;;;18.60;65.04;99910.53;2073449;28;19925;-74
2023/01/03 02:57:50;;;;;;;;;;;;;;;18.59;65.56;99911.56;2079313;28;20625;-75
2023/01/03 02:58:54;;;;;;;;;;;;;;;18.58;65.47;99913.38;2071796;28;19977;-75
2023/01/03 02:59:57;;;;;;;;;;;;;;;18.58;65.21;99916.06;2069790;28;19920;-75
2023/01/03 03:01:00;;;;;;;;;;;;;;;18.57;65.51;99910.88;2067597;28;19979;-75
2023/01/03 03:02:04;;;;;;;;;;;;;;;18.58;65.45;99909.88;2067754;28;20312;-74
2023/01/03 03:03:08;;;;;;;;;;;;;;;18.57;65.51;99908.19;2072843;28;19921;-74
2023/01/03 03:04:09;;;;;;;;;;;;;;;18.58;65.44;99915.25;2082650;28;19954;-75
2023/01/03 03:05:13;;;;;;;;;;;;;;;18.59;65.34;99914.25;2081382;28;19928;-74
2023/01/03 03:06:18;;;;;;;;;;;;;;;18.56;65.16;99911.91;2082361;28;19921;-74
2023/01/03 03:07:22;;;;;;;;;;;;;;;18.56;65.22;99914.59;2082377;28;20380;-75
2023/01/03 03:08:23;;;;;;;;;;;;;;;18.54;65.54;99914.75;2081700;28;20358;-74
2023/01/03 03:09:25;;;;;;;;;;;;;;;18.56;65.22;99902.00;2063076;28;19939;-75
2023/01/03 03:13:12;;;;;;;;;;;;;;;18.53;65.37;99907.72;2081244;28;19929;-74
2023/01/03 03:14:16;;;;;;;;;;;;;;;18.56;65.32;99906.53;2082312;28;19928;-75
2023/01/03 03:15:21;;;;;;;;;;;;;;;18.54;65.24;99904.00;2079318;28;19935;-76
2023/01/03 03:17:42;;;;;;;;;;;;;;;18.54;65.26;99902.16;2080435;28;20003;-74
2023/01/03 03:18:47;;;;;;;;;;;;;;;18.53;65.33;99897.81;2081641;28;19925;-75
2023/01/03 03:25:33;;;;;;;;;;;;;;;18.52;65.19;99893.41;2048388;28;20310;-74
2023/01/03 03:26:37;;;;;;;;;;;;;;;18.51;65.18;99897.13;2038328;28;19949;-76
2023/01/03 03:29:02;;;;;;;;;;;;;;;18.52;65.33;99892.59;2047296;28;20844;-74
2023/01/03 03:30:04;;;;;;;;;;;;;;;18.49;65.36;99899.13;2047666;28;19926;-74
2023/01/03 03:31:08;;;;;;;;;;;;;;;18.47;65.16;99890.44;2058533;28;20012;-75
2023/01/03 03:32:08;;;;;;;;;;;;;;;18.49;65.30;99893.75;2081742;28;19975;-75
2023/01/03 03:33:12;;;;;;;;;;;;;;;18.49;65.58;99895.63;2082115;28;19929;-74
2023/01/03 03:34:15;;;;;;;;;;;;;;;18.46;65.40;99896.81;2081673;28;19925;-74
2023/01/03 03:35:18;;;;;;;;;;;;;;;18.47;65.43;99893.13;2081931;28;19998;-73
2023/01/03 03:36:24;;;;;;;;;;;;;;;18.48;65.48;99900.16;2077417;28;19935;-76
2023/01/03 03:37:27;;;;;;;;;;;;;;;18.46;65.33;99898.66;2071737;28;20593;-75
2023/01/03 03:38:31;;;;;;;;;;;;;;;18.48;65.55;99899.31;2075076;28;20381;-75
2023/01/03 03:45:08;;;;;;;;;;;;;;;18.43;65.38;99891.78;2063359;28;19925;-74
2023/01/03 03:46:11;;;;;;;;;;;;;;;18.44;65.45;99892.59;2073913;28;20492;-75
2023/01/03 03:47:17;;;;;;;;;;;;;;;18.44;65.51;99895.28;2069811;28;19925;-74
2023/01/03 03:48:22;;;;;;;;;;;;;;;18.42;65.19;99890.09;2071201;28;19925;-74
2023/01/03 03:49:37;;;;;;;;;;;;;;;18.45;65.50;99897.00;2071724;28;19972;-75
2023/01/03 03:50:43;;;;;;;;;;;;;;;18.44;65.33;99889.91;2069011;28;19925;-76
2023/01/03 03:51:45;;;;;;;;;;;;;;;18.42;65.25;99892.78;2072416;28;19928;-74
2023/01/03 03:52:49;;;;;;;;;;;;;;;18.43;65.35;99891.78;2063166;28;20617;-75
2023/01/03 03:53:51;;;;;;;;;;;;;;;18.43;65.55;99893.63;2075584;28;19929;-72
2023/01/03 03:54:56;;;;;;;;;;;;;;;18.42;65.40;99895.47;2072782;28;19925;-74
2023/01/03 03:55:58;;;;;;;;;;;;;;;18.43;65.29;99891.78;2070341;28;19924;-75
2023/01/03 03:57:02;;;;;;;;;;;;;;;18.42;65.27;99895.47;2070842;28;19932;-74
2023/01/03 03:58:07;;;;;;;;;;;;;;;18.42;65.63;99900.03;2073459;28;20472;-74
2023/01/03 03:59:09;;;;;;;;;;;;;;;18.41;65.56;99901.84;2069418;28;19925;-75
2023/01/03 04:00:14;;;;;;;;;;;;;;;18.40;65.73;99899.34;2071503;28;19968;-74
2023/01/03 04:01:17;;;;;;;;;;;;;;;18.40;65.57;99896.66;2072092;28;20598;-74
2023/01/03 04:02:20;;;;;;;;;;;;;;;18.40;65.67;99893.97;2072380;28;19924;-76
2023/01/03 04:03:23;;;;;;;;;;;;;;;18.40;65.55;99900.19;2071301;28;20249;-74
2023/01/03 04:04:28;;;;;;;;;;;;;;;18.40;65.28;99894.81;2071484;28;20428;-74
2023/01/03 04:05:32;;;;;;;;;;;;;;;18.39;65.34;99890.44;2069093;28;21014;-74
2023/01/03 04:06:34;;;;;;;;;;;;;;;18.40;65.40;99902.03;2070191;28;20278;-74
2023/01/03 04:07:36;;;;;;;;;;;;;;;18.39;65.69;99901.19;2071486;28;19924;-74
2023/01/03 04:08:37;;;;;;;;;;;;;;;18.39;65.51;99901.19;2069626;28;20275;-74
2023/01/03 04:09:38;;;;;;;;;;;;;;;18.38;65.52;99893.31;2060086;28;19991;-74
2023/01/03 04:10:39;;;;;;;;;;;;;;;18.38;65.43;99894.13;2070907;28;19924;-76
2023/01/03 04:11:41;;;;;;;;;;;;;;;18.37;65.50;99897.00;2072595;28;20835;-74
2023/01/03 04:12:41;;;;;;;;;;;;;;;18.37;65.38;99891.63;2065597;28;19978;-75
2023/01/03 04:13:43;;;;;;;;;;;;;;;18.36;65.60;99893.50;2070493;28;21751;-75
2023/01/03 04:14:43;;;;;;;;;;;;;;;18.36;65.66;99896.19;2070673;28;19924;-74
2023/01/03 04:15:45;;;;;;;;;;;;;;;18.35;65.41;99896.34;2068760;28;20038;-75
2023/01/03 04:16:45;;;;;;;;;;;;;;;18.33;65.52;99890.28;2072634;28;20082;-74
2023/01/03 04:17:47;;;;;;;;;;;;;;;18.36;65.61;99895.31;2069743;28;19921;-74
2023/01/03 04:18:49;;;;;;;;;;;;;;;18.35;65.32;99889.09;2070943;28;19929;-74
2023/01/03 04:19:50;;;;;;;;;;;;;;;18.34;65.62;99890.13;2071778;28;20593;-76
2023/01/03 04:20:51;;;;;;;;;;;;;;;18.34;65.64;99891.97;2070872;28;19924;-75
2023/01/03 04:21:52;;;;;;;;;;;;;;;18.33;65.77;99899.22;2072868;28;21823;-75
2023/01/03 04:22:53;;;;;;;;;;;;;;;18.33;65.73;99899.22;2074344;28;19993;-75
2023/01/03 04:23:54;;;;;;;;;;;;;;;18.31;65.69;99891.31;2077671;28;19929;-74
2023/01/03 04:24:55;;;;;;;;;;;;;;;18.31;65.53;99893.16;2071358;28;19934;-76
2023/01/03 04:25:56;;;;;;;;;;;;;;;18.30;65.85;99897.69;2074787;28;20294;-75
2023/01/03 04:26:57;;;;;;;;;;;;;;;18.31;65.67;99895.84;2072837;28;19928;-75
2023/01/03 04:27:58;;;;;;;;;;;;;;;18.31;65.49;99899.34;2068830;28;20015;-74
2023/01/03 04:28:59;;;;;;;;;;;;;;;18.32;65.60;99894.81;2070892;28;20393;-75
2023/01/03 04:30:01;;;;;;;;;;;;;;;18.31;65.40;99894.00;2073774;28;19921;-75
2023/01/03 04:31:01;;;;;;;;;;;;;;;18.32;65.57;99894.81;2071921;28;20055;-75
2023/01/03 04:32:02;;;;;;;;;;;;;;;18.33;65.30;99901.03;2072814;28;20362;-74
2023/01/03 04:33:04;;;;;;;;;;;;;;;18.30;65.53;99897.69;2072698;28;20023;-75
2023/01/03 04:34:07;;;;;;;;;;;;;;;18.30;65.44;99902.19;2072570;28;19936;-74
2023/01/03 04:35:08;;;;;;;;;;;;;;;18.29;65.54;99896.00;2068301;28;20185;-76
2023/01/03 04:36:09;;;;;;;;;;;;;;;18.31;65.62;99902.03;2073691;28;19921;-74
2023/01/03 04:37:10;;;;;;;;;;;;;;;18.35;65.26;99899.84;2072897;28;19977;-75
2023/01/03 04:38:11;;;;;;;;;;;;;;;18.38;65.17;99904.03;2073049;28;19982;-75
2023/01/03 04:39:12;;;;;;;;;;;;;;;18.43;65.15;99896.31;2079089;28;19960;-74
2023/01/03 04:40:13;;;;;;;;;;;;;;;18.47;65.14;99898.50;2072847;28;20586;-74
2023/01/03 04:41:14;;;;;;;;;;;;;;;18.51;64.86;99898.97;2074657;28;19925;-75
2023/01/03 04:44:53;;;;;;;;;;;;;;;18.72;64.59;99893.03;2071420;28;19921;-75
2023/01/03 04:45:54;;;;;;;;;;;;;;;18.76;64.24;99894.41;2065271;28;19959;-76
2023/01/03 04:46:55;;;;;;;;;;;;;;;18.80;64.22;99900.25;2073751;28;20302;-74
2023/01/03 04:47:56;;;;;;;;;;;;;;;18.82;64.42;99896.38;2070888;28;19924;-74
2023/01/03 04:48:57;;;;;;;;;;;;;;;18.85;64.65;99892.50;2072465;28;19925;-76
2023/01/03 04:49:59;;;;;;;;;;;;;;;18.89;64.18;99891.16;2073921;28;20958;-74
2023/01/03 04:51:00;;;;;;;;;;;;;;;18.91;64.22;99887.25;2074506;28;19916;-74
2023/01/03 04:52:01;;;;;;;;;;;;;;;18.94;64.39;99891.44;2074030;28;19921;-75
2023/01/03 04:53:02;;;;;;;;;;;;;;;18.96;64.30;99887.56;2071457;28;20318;-76
2023/01/03 04:54:04;;;;;;;;;;;;;;;18.98;64.26;99888.25;2074150;28;20007;-75
2023/01/03 04:55:05;;;;;;;;;;;;;;;18.99;64.21;99883.69;2075598;28;20350;-74
2023/01/03 04:56:07;;;;;;;;;;;;;;;19.01;64.29;99886.22;2076503;28;19925;-75
2023/01/03 04:57:09;;;;;;;;;;;;;;;19.05;64.52;99892.91;2070810;28;19925;-75
2023/01/03 04:58:10;;;;;;;;;;;;;;;19.07;64.38;99893.59;2073624;28;20023;-75
2023/01/03 04:59:11;;;;;;;;;;;;;;;19.07;64.45;99894.41;2073359;28;19928;-74
2023/01/03 05:00:12;;;;;;;;;;;;;;;19.09;64.13;99905.00;2072491;28;20052;-74
2023/01/03 05:01:14;;;;;;;;;;;;;;;19.11;64.15;99902.97;2070947;28;20989;-75
2023/01/03 05:02:14;;;;;;;;;;;;;;;19.15;64.10;99912.38;2071866;28;19929;-74
2023/01/03 05:03:16;;;;;;;;;;;;;;;19.16;64.36;99901.41;2070016;28;20386;-75
2023/01/03 05:04:16;;;;;;;;;;;;;;;19.20;64.18;99915.38;2080098;28;20586;-75
2023/01/03 05:05:19;;;;;;;;;;;;;;;19.19;64.03;99902.91;2074786;28;19924;-74
2023/01/03 05:06:20;;;;;;;;;;;;;;;19.20;64.36;99910.00;2070341;28;20023;-75
2023/01/03 05:07:22;;;;;;;;;;;;;;;19.24;64.02;99905.09;2078191;28;19924;-76
2023/01/03 05:08:22;;;;;;;;;;;;;;;19.24;64.08;99908.63;2083469;28;19929;-74
2023/01/03 05:09:25;;;;;;;;;;;;;;;19.26;64.00;99908.44;2082172;28;20027;-75
2023/01/03 05:10:26;;;;;;;;;;;;;;;19.27;64.08;99912.81;2082577;28;19960;-75
2023/01/03 05:11:27;;;;;;;;;;;;;;;19.28;64.14;99904.56;2083081;28;19931;-74
2023/01/03 05:12:28;;;;;;;;;;;;;;;19.29;64.14;99914.31;2083737;28;20417;-74
2023/01/03 05:13:29;;;;;;;;;;;;;;;19.29;64.30;99906.22;2081792;28;19951;-74
2023/01/03 05:14:31;;;;;;;;;;;;;;;19.28;64.24;99912.63;2078803;28;20391;-75
2023/01/03 05:15:34;;;;;;;;;;;;;;;19.32;63.89;99913.94;2080410;28;19981;-74
2023/01/03 05:16:35;;;;;;;;;;;;;;;19.34;64.01;99914.63;2083086;28;20007;-74
2023/01/03 05:17:36;;;;;;;;;;;;;;;19.32;64.22;99908.56;2082947;28;20056;-75
2023/01/03 05:18:38;;;;;;;;;;;;;;;19.35;64.24;99915.44;2083399;28;20476;-75
2023/01/03 05:26:13;;;;;;;;;;;;;;;19.47;63.95;99918.56;2083062;28;19976;-74
2023/01/03 05:27:15;;;;;;;;;;;;;;;19.51;63.84;99917.22;2084009;28;19924;-75
2023/01/03 05:28:16;;;;;;;;;;;;;;;19.54;64.00;99919.53;2084303;28;19928;-74
2023/01/03 05:29:19;;;;;;;;;;;;;;;19.53;63.91;99923.22;2082525;28;19930;-74
2023/01/03 05:30:19;;;;;;;;;;;;;;;19.51;63.90;99923.41;2085331;28;19928;-76
2023/01/03 05:31:21;;;;;;;;;;;;;;;19.53;63.82;99921.41;2082494;28;19924;-74
2023/01/03 05:32:23;;;;;;;;;;;;;;;19.56;64.00;99928.28;2081621;28;19982;-74
2023/01/03 05:33:25;;;;;;;;;;;;;;;19.58;63.88;99926.22;2082758;28;19921;-75
2023/01/03 05:34:25;;;;;;;;;;;;;;;19.59;63.84;99922.53;2083759;28;19929;-74
2023/01/03 05:35:27;;;;;;;;;;;;;;;19.60;63.67;99924.19;2074159;28;20054;-74
2023/01/03 05:36:29;;;;;;;;;;;;;;;19.63;63.73;99921.97;2082599;28;19930;-73
2023/01/03 05:37:30;;;;;;;;;;;;;;;19.62;63.75;99924.88;2076415;28;19931;-74
2023/01/03 05:38:31;;;;;;;;;;;;;;;19.59;63.98;99926.06;2075458;28;19929;-75
2023/01/03 05:39:32;;;;;;;;;;;;;;;19.61;63.97;99928.56;2073976;28;19943;-74
2023/01/03 05:40:33;;;;;;;;;;;;;;;19.63;63.74;99927.38;2073751;28;20490;-75
2023/01/03 05:43:05;;;;;;;;;;;;;;;19.67;63.76;99935.09;2048858;28;19925;-75
2023/01/03 05:44:05;;;;;;;;;;;;;;;19.68;63.66;99926.03;2043905;28;19929;-76
2023/01/03 05:45:08;;;;;;;;;;;;;;;19.67;63.60;99933.28;2047411;28;22509;-75
2023/01/03 05:46:08;;;;;;;;;;;;;;;19.70;63.99;99937.47;2073482;28;20446;-74
2023/01/03 05:47:09;;;;;;;;;;;;;;;19.72;63.87;99932.72;2075498;28;21322;-75
2023/01/03 05:48:10;;;;;;;;;;;;;;;19.72;63.53;99930.88;2071631;28;19999;-76
2023/01/03 05:49:11;;;;;;;;;;;;;;;19.72;63.79;99927.34;2072289;28;19956;-74
2023/01/03 05:50:12;;;;;;;;;;;;;;;19.71;63.83;99939.13;2074541;28;20302;-74
2023/01/03 05:51:14;;;;;;;;;;;;;;;19.71;63.78;99939.97;2074196;28;19935;-75
2023/01/03 05:52:15;;;;;;;;;;;;;;;19.72;63.65;99936.25;2069227;28;19928;-74
2023/01/03 05:53:17;;;;;;;;;;;;;;;19.72;63.52;99936.25;2068279;28;19929;-75
2023/01/03 05:54:18;;;;;;;;;;;;;;;19.72;63.86;99930.03;2071630;28;20392;-76
2023/01/03 05:55:20;;;;;;;;;;;;;;;19.72;63.55;99935.41;2072160;28;19932;-74
2023/01/03 05:56:20;;;;;;;;;;;;;;;19.70;63.66;99938.31;2077007;28;19932;-75
2023/01/03 05:57:22;;;;;;;;;;;;;;;19.70;63.57;99942.84;2076401;28;19935;-75
2023/01/03 05:58:22;;;;;;;;;;;;;;;19.72;63.96;99946.19;2073756;28;19928;-74
2023/01/03 05:59:25;;;;;;;;;;;;;;;19.73;63.42;99947.88;2072912;28;20297;-76
2023/01/03 06:00:26;;;;;;;;;;;;;;;19.72;63.62;99944.31;2070495;28;24602;-75
2023/01/03 06:01:28;;;;;;;;;;;;;;;19.71;63.69;99939.13;2074615;28;19974;-75